Time;durP1;ratioP1;P1;durP2;ratioP2;P2;SDS_P1;SDS_P2;PMS_P1;PMS_P2;Temp;Humidity;BMP_temperature;BMP_pressure;BME280_temperature;BME280_humidity;BME280_pressure;Samples;Min_cycle;Max_cycle;Signal;HPM_P1;HPM_P2
2023/12/13 00:01:30;;;;;;;0.20;0.20;;;;;;;;;;5110066;28;20466;-70
2023/12/13 00:03:56;;;;;;;0.30;0.30;;;;;;;;;;5110006;28;20391;-70
2023/12/13 00:06:22;;;;;;;0.10;0.10;;;;;;;;;;5109744;28;20379;-70
2023/12/13 00:08:47;;;;;;;0.10;0.10;;;;;;;;;;5109521;28;20120;-71
2023/12/13 00:11:13;;;;;;;0.10;0.10;;;;;;;;;;5109142;28;20054;-71
2023/12/13 00:13:39;;;;;;;0.10;0.10;;;;;;;;;;5109707;28;20027;-72
2023/12/13 00:16:05;;;;;;;0.20;0.20;;;;;;;;;;5092759;28;20028;-69
2023/12/13 00:18:30;;;;;;;0.10;0.10;;;;;;;;;;5113802;28;20031;-71
2023/12/13 00:20:56;;;;;;;0.15;0.15;;;;;;;;;;5113650;28;20103;-71
2023/12/13 00:23:22;;;;;;;0.30;0.30;;;;;;;;;;5113495;28;20056;-70
2023/12/13 00:25:49;;;;;;;0.10;0.10;;;;;;;;;;5113603;28;20046;-71
2023/12/13 00:28:14;;;;;;;0.10;0.10;;;;;;;;;;5113498;28;20474;-71
2023/12/13 00:30:40;;;;;;;0.13;0.13;;;;;;;;;;5115668;28;20026;-71
2023/12/13 00:33:09;;;;;;;0.10;0.10;;;;;;;;;;5117627;28;20110;-71
2023/12/13 00:35:34;;;;;;;0.13;0.13;;;;;;;;;;5117609;28;20128;-70
2023/12/13 00:38:00;;;;;;;0.10;0.10;;;;;;;;;;5117350;28;20085;-71
2023/12/13 00:40:26;;;;;;;0.10;0.10;;;;;;;;;;5117795;28;20051;-71
2023/12/13 00:42:53;;;;;;;0.10;0.10;;;;;;;;;;5117646;28;20474;-71
2023/12/13 00:45:19;;;;;;;0.20;0.20;;;;;;;;;;5117446;28;20129;-71
2023/12/13 00:47:45;;;;;;;0.20;0.20;;;;;;;;;;5117201;28;20082;-71
2023/12/13 00:50:11;;;;;;;0.10;0.10;;;;;;;;;;5117167;28;20047;-70
2023/12/13 00:52:37;;;;;;;0.10;0.10;;;;;;;;;;5095093;28;20056;-70
2023/12/13 00:55:04;;;;;;;0.10;0.10;;;;;;;;;;5097237;28;20114;-70
2023/12/13 00:57:33;;;;;;;0.60;0.60;;;;;;;;;;5096888;28;20028;-70
2023/12/13 01:00:02;;;;;;;0.20;0.20;;;;;;;;;;5096754;28;20032;-70
2023/12/13 01:02:28;;;;;;;;;;;;;;;;;;5097162;28;20042;-70
2023/12/13 01:04:54;;;;;;;0.73;0.57;;;;;;;;;;5096578;28;19908;-70
2023/12/13 01:07:20;;;;;;;0.10;0.10;;;;;;;;;;5096314;28;20056;-70
2023/12/13 01:09:45;;;;;;;0.20;0.20;;;;;;;;;;5096550;28;20032;-70
2023/12/13 01:12:20;;;;;;;2.03;1.00;;;;;;;;;;5096396;28;20024;-70
2023/12/13 01:14:46;;;;;;;0.30;0.30;;;;;;;;;;5096506;28;20035;-70
2023/12/13 01:17:12;;;;;;;1.70;0.55;;;;;;;;;;5096274;28;20370;-70
2023/12/13 01:19:38;;;;;;;3.35;0.95;;;;;;;;;;5096191;28;20028;-70
2023/12/13 01:22:04;;;;;;;0.20;0.20;;;;;;;;;;5096050;28;20035;-70
2023/12/13 01:24:29;;;;;;;0.15;0.15;;;;;;;;;;5096301;28;20031;-70
2023/12/13 01:26:55;;;;;;;0.17;0.17;;;;;;;;;;5096250;28;20032;-70
2023/12/13 01:29:21;;;;;;;0.20;0.20;;;;;;;;;;5096109;28;20024;-70
2023/12/13 01:31:47;;;;;;;0.20;0.20;;;;;;;;;;5096054;28;20039;-70
2023/12/13 01:34:14;;;;;;;0.10;0.10;;;;;;;;;;5095395;28;20027;-70
2023/12/13 01:36:41;;;;;;;0.20;0.20;;;;;;;;;;5096492;28;20036;-70
2023/12/13 01:39:07;;;;;;;0.20;0.20;;;;;;;;;;5095994;28;20032;-70
2023/12/13 01:41:33;;;;;;;0.40;0.40;;;;;;;;;;5095787;28;20081;-70
2023/12/13 01:43:59;;;;;;;0.13;0.13;;;;;;;;;;5096169;28;20379;-69
2023/12/13 01:46:26;;;;;;;0.20;0.20;;;;;;;;;;5094555;28;20115;-70
2023/12/13 01:48:51;;;;;;;4.13;1.00;;;;;;;;;;5095539;28;20127;-71
2023/12/13 01:51:17;;;;;;;2.05;0.47;;;;;;;;;;5094229;28;20052;-71
2023/12/13 01:53:43;;;;;;;0.30;0.30;;;;;;;;;;5094348;28;20086;-70
2023/12/13 01:56:10;;;;;;;0.10;0.10;;;;;;;;;;5095487;28;20477;-71
2023/12/13 01:58:39;;;;;;;0.10;0.10;;;;;;;;;;5095784;28;20028;-70
2023/12/13 02:01:06;;;;;;;0.20;0.20;;;;;;;;;;5095410;28;20031;-71
2023/12/13 02:03:33;;;;;;;0.20;0.20;;;;;;;;;;5094063;28;20024;-71
2023/12/13 02:06:02;;;;;;;0.10;0.10;;;;;;;;;;5095670;28;20521;-70
2023/12/13 02:08:31;;;;;;;0.20;0.20;;;;;;;;;;5095306;28;20028;-70
2023/12/13 02:10:58;;;;;;;0.10;0.10;;;;;;;;;;5095349;28;20021;-71
2023/12/13 02:13:24;;;;;;;0.10;0.10;;;;;;;;;;5094921;28;20020;-70
2023/12/13 02:15:50;;;;;;;0.20;0.20;;;;;;;;;;5095109;28;20530;-70
2023/12/13 02:18:16;;;;;;;0.10;0.10;;;;;;;;;;5095349;28;20032;-70
2023/12/13 02:20:50;;;;;;;0.28;0.28;;;;;;;;;;5095034;28;20028;-70
2023/12/13 02:23:15;;;;;;;0.75;0.75;;;;;;;;;;5095100;28;20020;-70
2023/12/13 02:25:53;;;;;;;0.13;0.13;;;;;;;;;;5095250;28;20074;-69
2023/12/13 02:28:20;;;;;;;0.30;0.30;;;;;;;;;;5094688;28;20121;-69
2023/12/13 02:30:46;;;;;;;0.10;0.10;;;;;;;;;;5093884;28;20032;-71
2023/12/13 02:33:11;;;;;;;0.17;0.17;;;;;;;;;;5093851;28;20497;-70
2023/12/13 02:35:37;;;;;;;0.10;0.10;;;;;;;;;;5094493;28;20037;-70
2023/12/13 02:38:03;;;;;;;0.60;0.50;;;;;;;;;;5094865;28;20030;-70
2023/12/13 02:40:29;;;;;;;0.20;0.20;;;;;;;;;;5094583;28;20059;-70
2023/12/13 02:42:55;;;;;;;1.95;0.80;;;;;;;;;;5094832;28;20063;-70
2023/12/13 02:45:20;;;;;;;0.15;0.15;;;;;;;;;;5094480;28;20035;-71
2023/12/13 02:47:46;;;;;;;0.20;0.20;;;;;;;;;;5094613;28;20386;-70
2023/12/13 02:50:13;;;;;;;0.10;0.10;;;;;;;;;;5094718;28;20024;-72
2023/12/13 02:52:42;;;;;;;0.13;0.13;;;;;;;;;;5112325;28;20047;-70
2023/12/13 02:55:11;;;;;;;0.10;0.10;;;;;;;;;;5114780;28;20089;-70
2023/12/13 02:57:37;;;;;;;0.17;0.17;;;;;;;;;;5114625;28;20032;-70
2023/12/13 03:00:04;;;;;;;0.10;0.10;;;;;;;;;;5114590;28;20019;-70
2023/12/13 03:02:30;;;;;;;0.10;0.10;;;;;;;;;;5114970;28;20024;-70
2023/12/13 03:04:55;;;;;;;0.28;0.28;;;;;;;;;;5114970;28;20436;-70
2023/12/13 03:07:31;;;;;;;0.20;0.20;;;;;;;;;;5114621;28;20489;-70
2023/12/13 03:09:57;;;;;;;0.10;0.10;;;;;;;;;;5114455;28;20057;-71
2023/12/13 03:12:23;;;;;;;0.10;0.10;;;;;;;;;;5114410;28;20108;-70
2023/12/13 03:14:49;;;;;;;0.10;0.10;;;;;;;;;;5114522;28;20501;-71
2023/12/13 03:17:15;;;;;;;0.20;0.20;;;;;;;;;;5114638;28;20160;-71
2023/12/13 03:19:41;;;;;;;0.10;0.10;;;;;;;;;;5114567;28;20470;-71
2023/12/13 03:22:07;;;;;;;0.22;0.22;;;;;;;;;;5096360;28;20023;-71
2023/12/13 03:24:33;;;;;;;0.10;0.10;;;;;;;;;;5114263;28;20023;-71
2023/12/13 03:26:58;;;;;;;0.10;0.10;;;;;;;;;;5114336;28;20466;-71
2023/12/13 03:29:24;;;;;;;0.10;0.10;;;;;;;;;;5114355;28;20063;-70
2023/12/13 03:31:50;;;;;;;0.10;0.10;;;;;;;;;;5114428;28;20492;-69
2023/12/13 03:34:16;;;;;;;0.10;0.10;;;;;;;;;;5114062;28;20437;-69
2023/12/13 03:36:42;;;;;;;0.10;0.10;;;;;;;;;;5114160;28;20027;-71
2023/12/13 03:39:08;;;;;;;0.15;0.15;;;;;;;;;;5114395;28;20360;-70
2023/12/13 03:41:34;;;;;;;0.10;0.10;;;;;;;;;;5114495;28;20027;-70
2023/12/13 03:44:00;;;;;;;0.40;0.40;;;;;;;;;;5113290;28;20015;-71
2023/12/13 03:46:26;;;;;;;0.10;0.10;;;;;;;;;;5113646;28;20031;-71
2023/12/13 03:48:52;;;;;;;0.47;0.25;;;;;;;;;;5113935;28;20031;-70
2023/12/13 03:51:18;;;;;;;0.20;0.20;;;;;;;;;;5113730;28;20047;-71
2023/12/13 03:53:43;;;;;;;0.10;0.10;;;;;;;;;;5113860;28;20058;-70
2023/12/13 03:56:09;;;;;;;0.13;0.13;;;;;;;;;;5113941;28;20474;-71
2023/12/13 03:58:36;;;;;;;0.10;0.10;;;;;;;;;;5113842;28;20497;-71
2023/12/13 04:01:01;;;;;;;0.10;0.10;;;;;;;;;;5113830;28;20019;-70
2023/12/13 04:03:27;;;;;;;0.20;0.20;;;;;;;;;;5077885;28;20020;-73
2023/12/13 04:05:53;;;;;;;0.22;0.22;;;;;;;;;;5093761;28;20032;-71
2023/12/13 04:08:20;;;;;;;0.10;0.10;;;;;;;;;;5094108;28;20055;-70
2023/12/13 04:10:47;;;;;;;0.20;0.20;;;;;;;;;;5093864;28;20088;-72
2023/12/13 04:13:12;;;;;;;0.10;0.10;;;;;;;;;;5093685;28;20024;-71
2023/12/13 04:15:38;;;;;;;0.10;0.10;;;;;;;;;;5093840;28;20378;-71
2023/12/13 04:18:04;;;;;;;0.10;0.10;;;;;;;;;;5093671;28;20032;-70
2023/12/13 04:20:30;;;;;;;2.72;1.30;;;;;;;;;;5093351;28;20060;-70
2023/12/13 04:22:56;;;;;;;0.10;0.10;;;;;;;;;;5093373;28;20407;-70
2023/12/13 04:25:22;;;;;;;0.10;0.10;;;;;;;;;;5093660;28;20184;-69
2023/12/13 04:27:47;;;;;;;0.10;0.10;;;;;;;;;;5093726;28;20028;-71
2023/12/13 04:30:14;;;;;;;0.10;0.10;;;;;;;;;;5093411;28;20094;-70
2023/12/13 04:32:40;;;;;;;0.10;0.10;;;;;;;;;;5093207;28;20479;-71
2023/12/13 04:35:06;;;;;;;0.10;0.10;;;;;;;;;;5093154;28;20068;-71
2023/12/13 04:37:32;;;;;;;0.10;0.10;;;;;;;;;;5093268;28;20024;-71
2023/12/13 04:39:58;;;;;;;0.10;0.10;;;;;;;;;;5093312;28;20074;-71
2023/12/13 04:42:24;;;;;;;0.10;0.10;;;;;;;;;;5075094;28;20028;-71
2023/12/13 04:44:50;;;;;;;0.10;0.10;;;;;;;;;;5093302;28;20461;-71
2023/12/13 04:47:16;;;;;;;0.20;0.20;;;;;;;;;;5092953;28;20107;-70
2023/12/13 04:49:42;;;;;;;0.10;0.10;;;;;;;;;;5092902;28;20032;-69
2023/12/13 04:52:07;;;;;;;0.10;0.10;;;;;;;;;;5092634;28;20125;-71
2023/12/13 04:54:35;;;;;;;0.10;0.10;;;;;;;;;;5092729;28;20623;-70
2023/12/13 04:57:01;;;;;;;0.10;0.10;;;;;;;;;;5092823;28;20035;-71
2023/12/13 04:59:27;;;;;;;0.10;0.10;;;;;;;;;;5092768;28;20028;-72
2023/12/13 05:01:53;;;;;;;0.10;0.10;;;;;;;;;;5093043;28;20504;-70
2023/12/13 05:04:19;;;;;;;0.10;0.10;;;;;;;;;;5092910;28;20031;-71
2023/12/13 05:06:45;;;;;;;0.10;0.10;;;;;;;;;;5092878;28;20028;-70
2023/12/13 05:09:10;;;;;;;0.13;0.13;;;;;;;;;;5092588;28;20032;-70
2023/12/13 05:11:37;;;;;;;0.60;0.60;;;;;;;;;;5092902;28;20028;-70
2023/12/13 05:14:03;;;;;;;0.10;0.10;;;;;;;;;;5092636;28;20383;-71
2023/12/13 05:16:29;;;;;;;0.10;0.10;;;;;;;;;;5091457;28;20028;-71
2023/12/13 05:18:55;;;;;;;0.10;0.10;;;;;;;;;;5092835;28;20028;-71
2023/12/13 05:21:21;;;;;;;0.20;0.20;;;;;;;;;;5092200;28;20042;-70
2023/12/13 05:23:47;;;;;;;0.20;0.20;;;;;;;;;;5092296;28;20020;-70
2023/12/13 05:26:16;;;;;;;0.10;0.10;;;;;;;;;;5092407;28;20489;-69
2023/12/13 05:28:43;;;;;;;0.15;0.15;;;;;;;;;;5091873;28;20041;-69
2023/12/13 05:31:24;;;;;;;0.10;0.10;;;;;;;;;;5092206;28;20035;-69
2023/12/13 05:33:50;;;;;;;0.10;0.10;;;;;;;;;;5091864;28;20471;-71
2023/12/13 05:36:16;;;;;;;0.60;0.55;;;;;;;;;;5091916;28;20039;-72
2023/12/13 05:38:43;;;;;;;0.10;0.10;;;;;;;;;;5073507;28;20063;-70
2023/12/13 05:41:09;;;;;;;0.20;0.20;;;;;;;;;;5092625;28;20510;-72
2023/12/13 05:43:35;;;;;;;0.20;0.20;;;;;;;;;;5091920;28;20111;-70
2023/12/13 05:46:01;;;;;;;0.10;0.10;;;;;;;;;;5092025;28;20031;-70
2023/12/13 05:48:27;;;;;;;0.10;0.10;;;;;;;;;;5091365;28;20039;-70
2023/12/13 05:50:53;;;;;;;0.10;0.10;;;;;;;;;;5091715;28;20036;-70
2023/12/13 05:53:19;;;;;;;0.10;0.10;;;;;;;;;;5090864;28;20429;-71
2023/12/13 05:55:44;;;;;;;3.65;3.50;;;;;;;;;;5089796;28;20526;-71
2023/12/13 05:58:10;;;;;;;0.10;0.10;;;;;;;;;;5089844;28;20024;-70
2023/12/13 06:00:36;;;;;;;0.10;0.10;;;;;;;;;;5091678;28;20016;-71
2023/12/13 06:03:05;;;;;;;0.10;0.10;;;;;;;;;;5103182;28;20394;-72
2023/12/13 06:05:31;;;;;;;0.10;0.10;;;;;;;;;;5112053;28;20030;-71
2023/12/13 06:07:57;;;;;;;0.10;0.10;;;;;;;;;;5112042;28;20441;-70
2023/12/13 06:10:23;;;;;;;0.20;0.20;;;;;;;;;;5111311;28;20030;-70
2023/12/13 06:12:50;;;;;;;0.10;0.10;;;;;;;;;;5111035;28;20024;-70
2023/12/13 06:15:28;;;;;;;0.10;0.10;;;;;;;;;;5093518;28;20172;-70
2023/12/13 06:17:54;;;;;;;0.10;0.10;;;;;;;;;;5112074;28;20031;-71
2023/12/13 06:20:21;;;;;;;0.10;0.10;;;;;;;;;;5111377;28;20031;-71
2023/12/13 06:22:47;;;;;;;0.10;0.10;;;;;;;;;;5093125;28;20035;-70
2023/12/13 06:25:13;;;;;;;0.10;0.10;;;;;;;;;;5111535;28;20016;-70
2023/12/13 06:27:44;;;;;;;0.10;0.10;;;;;;;;;;5110513;28;20115;-69
2023/12/13 06:30:10;;;;;;;0.10;0.10;;;;;;;;;;5109311;28;20032;-72
2023/12/13 06:32:36;;;;;;;0.10;0.10;;;;;;;;;;5111068;28;20035;-72
2023/12/13 06:35:02;;;;;;;0.15;0.15;;;;;;;;;;5093209;28;20031;-71
2023/12/13 06:37:28;;;;;;;0.20;0.20;;;;;;;;;;5111917;28;20081;-70
2023/12/13 06:39:53;;;;;;;0.10;0.10;;;;;;;;;;5109253;28;20042;-70
2023/12/13 06:42:19;;;;;;;0.10;0.10;;;;;;;;;;5104219;28;20442;-72
2023/12/13 06:44:45;;;;;;;0.20;0.20;;;;;;;;;;5093982;28;20052;-70
2023/12/13 06:47:11;;;;;;;0.30;0.30;;;;;;;;;;5090494;28;20043;-70
2023/12/13 06:49:39;;;;;;;0.10;0.10;;;;;;;;;;5097209;28;20040;-71
2023/12/13 06:52:05;;;;;;;0.10;0.10;;;;;;;;;;5092321;28;20044;-71
2023/12/13 06:54:31;;;;;;;0.10;0.10;;;;;;;;;;5111120;28;20019;-69
2023/12/13 06:56:57;;;;;;;0.10;0.10;;;;;;;;;;5111446;28;20427;-71
2023/12/13 06:59:23;;;;;;;0.10;0.10;;;;;;;;;;5111157;28;20043;-71
2023/12/13 07:01:49;;;;;;;0.10;0.10;;;;;;;;;;5092814;28;20084;-71
2023/12/13 07:04:15;;;;;;;0.20;0.20;;;;;;;;;;5092869;28;20031;-71
2023/12/13 07:06:41;;;;;;;0.10;0.10;;;;;;;;;;5110424;28;20123;-73
2023/12/13 07:09:08;;;;;;;0.10;0.10;;;;;;;;;;5110808;28;20370;-71
2023/12/13 07:11:34;;;;;;;1.30;0.82;;;;;;;;;;5110631;28;20032;-71
2023/12/13 07:14:01;;;;;;;1.85;1.75;;;;;;;;;;5111004;28;20466;-70
2023/12/13 07:16:27;;;;;;;0.17;0.17;;;;;;;;;;5110511;28;20542;-71
2023/12/13 07:18:53;;;;;;;0.10;0.10;;;;;;;;;;5110801;28;20024;-71
2023/12/13 07:21:20;;;;;;;0.10;0.10;;;;;;;;;;5110456;28;20035;-71
2023/12/13 07:23:48;;;;;;;0.10;0.10;;;;;;;;;;5110578;28;20386;-72
2023/12/13 07:26:16;;;;;;;0.20;0.20;;;;;;;;;;5110782;28;20032;-71
2023/12/13 07:28:41;;;;;;;0.10;0.10;;;;;;;;;;5110064;28;20062;-71
2023/12/13 07:31:07;;;;;;;0.10;0.10;;;;;;;;;;5110287;28;20020;-71
2023/12/13 07:33:34;;;;;;;0.10;0.10;;;;;;;;;;5110119;28;20470;-71
2023/12/13 07:36:00;;;;;;;0.10;0.10;;;;;;;;;;5110360;28;20116;-71
2023/12/13 07:38:26;;;;;;;0.10;0.10;;;;;;;;;;5110735;28;20122;-71
2023/12/13 07:40:52;;;;;;;0.17;0.17;;;;;;;;;;5110153;28;20816;-72
2023/12/13 07:43:17;;;;;;;0.17;0.17;;;;;;;;;;5110068;28;20533;-72
2023/12/13 07:45:43;;;;;;;0.10;0.10;;;;;;;;;;5110343;28;20019;-73
2023/12/13 07:48:09;;;;;;;0.10;0.10;;;;;;;;;;5110168;28;20106;-71
2023/12/13 07:50:35;;;;;;;0.20;0.20;;;;;;;;;;5108123;28;20367;-71
2023/12/13 07:53:02;;;;;;;0.40;0.40;;;;;;;;;;5077933;28;20058;-71
2023/12/13 07:55:28;;;;;;;0.20;0.20;;;;;;;;;;5084510;28;20390;-75
2023/12/13 07:57:54;;;;;;;1.55;0.75;;;;;;;;;;5068580;28;20086;-74
2023/12/13 08:00:22;;;;;;;0.10;0.10;;;;;;;;;;5086633;28;20038;-70
2023/12/13 08:02:48;;;;;;;0.10;0.10;;;;;;;;;;5087180;28;20482;-73
2023/12/13 08:05:16;;;;;;;0.10;0.10;;;;;;;;;;5089300;28;20038;-74
2023/12/13 08:07:41;;;;;;;0.10;0.10;;;;;;;;;;5088657;28;20016;-75
2023/12/13 08:10:07;;;;;;;0.10;0.10;;;;;;;;;;5089107;28;20546;-74
2023/12/13 08:12:36;;;;;;;0.10;0.10;;;;;;;;;;5087254;28;20036;-75
2023/12/13 08:15:05;;;;;;;0.20;0.20;;;;;;;;;;5088261;28;20030;-74
2023/12/13 08:17:33;;;;;;;0.10;0.10;;;;;;;;;;5088373;28;20019;-73
2023/12/13 08:20:00;;;;;;;0.10;0.10;;;;;;;;;;5089067;28;20039;-73
2023/12/13 08:22:27;;;;;;;0.20;0.20;;;;;;;;;;5070568;28;20494;-74
2023/12/13 08:24:53;;;;;;;0.10;0.10;;;;;;;;;;5089028;28;20016;-74
2023/12/13 08:27:18;;;;;;;0.10;0.10;;;;;;;;;;5088363;28;20016;-73
2023/12/13 08:29:44;;;;;;;0.10;0.10;;;;;;;;;;5071202;28;20027;-73
2023/12/13 08:32:10;;;;;;;0.10;0.10;;;;;;;;;;5089035;28;20035;-73
2023/12/13 08:34:36;;;;;;;0.20;0.20;;;;;;;;;;5088414;28;20424;-73
2023/12/13 08:37:01;;;;;;;0.10;0.10;;;;;;;;;;5085945;28;20425;-74
2023/12/13 08:39:27;;;;;;;0.20;0.20;;;;;;;;;;5087001;28;20383;-74
2023/12/13 08:41:53;;;;;;;0.15;0.15;;;;;;;;;;5086803;28;20073;-74
2023/12/13 08:44:19;;;;;;;0.20;0.20;;;;;;;;;;5086443;28;20024;-73
2023/12/13 08:46:46;;;;;;;0.20;0.20;;;;;;;;;;5086744;28;20024;-74
2023/12/13 08:49:12;;;;;;;0.10;0.10;;;;;;;;;;5085867;28;20376;-75
2023/12/13 08:51:37;;;;;;;0.13;0.13;;;;;;;;;;5088084;28;20052;-73
2023/12/13 08:54:04;;;;;;;0.20;0.20;;;;;;;;;;5090395;28;20028;-74
2023/12/13 08:56:30;;;;;;;0.17;0.17;;;;;;;;;;5090319;28;20487;-75
2023/12/13 08:58:55;;;;;;;0.20;0.20;;;;;;;;;;5090711;28;20380;-74
2023/12/13 09:01:21;;;;;;;0.10;0.10;;;;;;;;;;5089402;28;20020;-76
2023/12/13 09:03:47;;;;;;;0.20;0.20;;;;;;;;;;5089975;28;20031;-75
2023/12/13 09:06:14;;;;;;;0.15;0.15;;;;;;;;;;5090016;28;20039;-75
2023/12/13 09:08:40;;;;;;;0.10;0.10;;;;;;;;;;5071839;28;20353;-75
2023/12/13 09:11:06;;;;;;;0.10;0.10;;;;;;;;;;5090007;28;20111;-76
2023/12/13 09:13:32;;;;;;;0.22;0.22;;;;;;;;;;5089412;28;20024;-77
2023/12/13 09:15:58;;;;;;;0.20;0.20;;;;;;;;;;5090173;28;20043;-75
2023/12/13 09:18:24;;;;;;;0.10;0.10;;;;;;;;;;5071619;28;20054;-75
2023/12/13 09:20:49;;;;;;;0.20;0.20;;;;;;;;;;5071419;28;20099;-75
2023/12/13 09:23:27;;;;;;;0.10;0.10;;;;;;;;;;5090206;28;20024;-75
2023/12/13 09:25:54;;;;;;;0.20;0.17;;;;;;;;;;5089536;28;20057;-74
2023/12/13 09:28:20;;;;;;;1.27;0.85;;;;;;;;;;5089516;28;20064;-75
2023/12/13 09:30:46;;;;;;;0.10;0.10;;;;;;;;;;5089651;28;20094;-74
2023/12/13 09:33:11;;;;;;;0.20;0.20;;;;;;;;;;5089854;28;20169;-74
2023/12/13 09:35:38;;;;;;;0.20;0.20;;;;;;;;;;5091644;28;20447;-73
2023/12/13 09:38:04;;;;;;;0.20;0.20;;;;;;;;;;5091589;28;20540;-74
2023/12/13 09:40:30;;;;;;;0.50;0.50;;;;;;;;;;5091405;28;20032;-75
2023/12/13 09:42:56;;;;;;;0.20;0.20;;;;;;;;;;5091912;28;20085;-74
2023/12/13 09:45:22;;;;;;;0.20;0.20;;;;;;;;;;5091224;28;20368;-73
2023/12/13 09:47:52;;;;;;;0.20;0.20;;;;;;;;;;5091183;28;20532;-76
2023/12/13 09:50:17;;;;;;;;;;;;;;;;;;5091752;28;20028;-73
2023/12/13 09:52:43;;;;;;;0.40;0.40;;;;;;;;;;5069616;28;19980;-73
2023/12/13 09:55:10;;;;;;;0.20;0.20;;;;;;;;;;5071060;28;20407;-75
2023/12/13 09:57:36;;;;;;;0.20;0.20;;;;;;;;;;5071453;28;20122;-75
2023/12/13 10:00:02;;;;;;;0.20;0.20;;;;;;;;;;5070791;28;20154;-76
2023/12/13 10:02:34;;;;;;;0.20;0.20;;;;;;;;;;5070203;28;20040;-74
2023/12/13 10:04:59;;;;;;;0.57;0.57;;;;;;;;;;5070791;28;20391;-75
2023/12/13 10:07:27;;;;;;;0.65;0.65;;;;;;;;;;5069843;28;20120;-74
2023/12/13 10:09:55;;;;;;;0.20;0.20;;;;;;;;;;5069970;28;20040;-74
2023/12/13 10:12:21;;;;;;;0.20;0.20;;;;;;;;;;5070520;28;20471;-76
2023/12/13 10:14:47;;;;;;;1.77;0.73;;;;;;;;;;5070592;28;20036;-74
2023/12/13 10:17:13;;;;;;;0.85;0.85;;;;;;;;;;5070389;28;20103;-75
2023/12/13 10:19:39;;;;;;;0.20;0.20;;;;;;;;;;5070883;28;20031;-75
2023/12/13 10:22:05;;;;;;;0.20;0.20;;;;;;;;;;5070739;28;20021;-75
2023/12/13 10:24:34;;;;;;;0.20;0.20;;;;;;;;;;5069047;28;20032;-74
2023/12/13 10:27:00;;;;;;;0.30;0.30;;;;;;;;;;5070322;28;20012;-75
2023/12/13 10:29:27;;;;;;;0.20;0.20;;;;;;;;;;5070419;28;20040;-74
2023/12/13 10:31:53;;;;;;;0.17;0.17;;;;;;;;;;5070290;28;20048;-75
2023/12/13 10:34:18;;;;;;;0.10;0.10;;;;;;;;;;5067016;28;20135;-75
2023/12/13 10:36:46;;;;;;;0.10;0.10;;;;;;;;;;5067966;28;20037;-74
2023/12/13 10:39:13;;;;;;;0.20;0.20;;;;;;;;;;5069044;28;20035;-74
2023/12/13 10:41:38;;;;;;;0.22;0.22;;;;;;;;;;5070547;28;20039;-74
2023/12/13 10:44:07;;;;;;;0.20;0.20;;;;;;;;;;5069861;28;20028;-75
2023/12/13 10:46:35;;;;;;;0.30;0.30;;;;;;;;;;5069957;28;20036;-74
2023/12/13 10:49:03;;;;;;;0.20;0.20;;;;;;;;;;5069853;28;20424;-75
2023/12/13 10:51:31;;;;;;;0.43;0.43;;;;;;;;;;5078375;28;20040;-75
2023/12/13 10:53:58;;;;;;;0.20;0.20;;;;;;;;;;5090551;28;20517;-74
2023/12/13 10:56:24;;;;;;;0.20;0.20;;;;;;;;;;5089944;28;20029;-73
2023/12/13 10:58:51;;;;;;;0.17;0.17;;;;;;;;;;5090126;28;20036;-75
2023/12/13 11:01:17;;;;;;;0.20;0.20;;;;;;;;;;5089909;28;20186;-74
2023/12/13 11:03:57;;;;;;;0.20;0.20;;;;;;;;;;5071984;28;20074;-75
2023/12/13 11:06:23;;;;;;;0.45;0.45;;;;;;;;;;5090103;28;20034;-75
2023/12/13 11:08:48;;;;;;;0.20;0.20;;;;;;;;;;5089605;28;20036;-75
2023/12/13 11:11:16;;;;;;;0.20;0.20;;;;;;;;;;5089381;28;20016;-74
2023/12/13 11:13:52;;;;;;;0.20;0.20;;;;;;;;;;5088911;28;20032;-74
2023/12/13 11:16:22;;;;;;;0.20;0.20;;;;;;;;;;5088099;28;20034;-74
2023/12/13 11:18:56;;;;;;;0.20;0.20;;;;;;;;;;5071471;28;20031;-74
2023/12/13 11:21:27;;;;;;;0.20;0.20;;;;;;;;;;5088896;28;20059;-74
2023/12/13 11:24:00;;;;;;;0.20;0.20;;;;;;;;;;5088752;28;20097;-73
2023/12/13 11:26:26;;;;;;;0.20;0.20;;;;;;;;;;5086656;28;20024;-74
2023/12/13 11:28:54;;;;;;;0.20;0.20;;;;;;;;;;5089599;28;20034;-74
2023/12/13 11:31:22;;;;;;;0.20;0.20;;;;;;;;;;5089752;28;20155;-74
2023/12/13 11:33:49;;;;;;;0.20;0.20;;;;;;;;;;5089347;28;20024;-74
2023/12/13 11:36:18;;;;;;;0.25;0.25;;;;;;;;;;5089367;28;20046;-74
2023/12/13 11:38:44;;;;;;;0.20;0.20;;;;;;;;;;5071591;28;20024;-75
2023/12/13 11:41:10;;;;;;;0.20;0.20;;;;;;;;;;5069002;28;20032;-74
2023/12/13 11:43:37;;;;;;;0.20;0.20;;;;;;;;;;5079463;28;20027;-73
2023/12/13 11:46:03;;;;;;;0.20;0.20;;;;;;;;;;5071624;28;20028;-74
2023/12/13 11:48:28;;;;;;;0.20;0.20;;;;;;;;;;5089194;28;20509;-74
2023/12/13 11:50:55;;;;;;;0.20;0.20;;;;;;;;;;5088945;28;20071;-76
2023/12/13 11:53:21;;;;;;;0.20;0.20;;;;;;;;;;5089286;28;20050;-75
2023/12/13 11:55:49;;;;;;;0.20;0.20;;;;;;;;;;5089200;28;20031;-75
2023/12/13 11:58:16;;;;;;;0.20;0.20;;;;;;;;;;5089316;28;20075;-75
2023/12/13 12:00:43;;;;;;;0.20;0.20;;;;;;;;;;5088844;28;20708;-74
2023/12/13 12:03:09;;;;;;;0.30;0.30;;;;;;;;;;5089082;28;20051;-74
2023/12/13 12:05:34;;;;;;;0.30;0.30;;;;;;;;;;5071070;28;20485;-74
2023/12/13 12:08:04;;;;;;;0.40;0.40;;;;;;;;;;5089132;28;20036;-76
2023/12/13 12:10:33;;;;;;;0.47;0.47;;;;;;;;;;5088972;28;20028;-76
2023/12/13 12:13:00;;;;;;;0.85;0.57;;;;;;;;;;5088679;28;20024;-75
2023/12/13 12:15:26;;;;;;;1.08;0.70;;;;;;;;;;5088775;28;20085;-74
2023/12/13 12:17:52;;;;;;;0.22;0.22;;;;;;;;;;5089531;28;20562;-75
2023/12/13 12:20:18;;;;;;;0.20;0.20;;;;;;;;;;5088751;28;20039;-75
2023/12/13 12:22:46;;;;;;;0.60;0.60;;;;;;;;;;5088619;28;20024;-76
2023/12/13 12:25:12;;;;;;;0.32;0.32;;;;;;;;;;5089650;28;20024;-76
2023/12/13 12:27:44;;;;;;;0.43;0.40;;;;;;;;;;5092879;28;20034;-78
2023/12/13 12:30:10;;;;;;;0.20;0.20;;;;;;;;;;5093169;28;20036;-75
2023/12/13 12:32:36;;;;;;;0.43;0.43;;;;;;;;;;5092351;28;20512;-75
2023/12/13 12:35:05;;;;;;;0.10;0.10;;;;;;;;;;5074753;28;20028;-75
2023/12/13 12:37:31;;;;;;;0.20;0.20;;;;;;;;;;5075170;28;20020;-75
2023/12/13 12:39:57;;;;;;;0.20;0.20;;;;;;;;;;5093025;28;20032;-75
2023/12/13 12:42:23;;;;;;;0.10;0.10;;;;;;;;;;5092481;28;20024;-74
2023/12/13 12:44:48;;;;;;;1.65;1.05;;;;;;;;;;5092316;28;20482;-74
2023/12/13 12:47:15;;;;;;;1.55;0.68;;;;;;;;;;5092161;28;20103;-73
2023/12/13 12:49:41;;;;;;;0.20;0.20;;;;;;;;;;5092307;28;20430;-73
2023/12/13 12:52:06;;;;;;;0.20;0.20;;;;;;;;;;5070903;28;20052;-73
2023/12/13 12:54:32;;;;;;;0.20;0.20;;;;;;;;;;5072129;28;20017;-73
2023/12/13 12:56:58;;;;;;;0.20;0.20;;;;;;;;;;5072097;28;20438;-73
2023/12/13 12:59:24;;;;;;;0.22;0.22;;;;;;;;;;5070717;28;20035;-73
2023/12/13 13:01:50;;;;;;;8.50;1.75;;;;;;;;;;5072067;28;20024;-74
2023/12/13 13:04:15;;;;;;;22.67;1.85;;;;;;;;;;5072107;28;20367;-74
2023/12/13 13:06:42;;;;;;;0.30;0.30;;;;;;;;;;5071911;28;20025;-75
2023/12/13 13:09:08;;;;;;;2.95;1.27;;;;;;;;;;5059910;28;20036;-76
2023/12/13 13:11:34;;;;;;;2.83;0.90;;;;;;;;;;5067731;28;20025;-75
2023/12/13 13:14:04;;;;;;;0.30;0.30;;;;;;;;;;5071537;28;20024;-74
2023/12/13 13:16:31;;;;;;;0.30;0.30;;;;;;;;;;5071203;28;20036;-73
2023/12/13 13:18:57;;;;;;;0.25;0.25;;;;;;;;;;5065281;28;20055;-73
2023/12/13 13:21:23;;;;;;;0.40;0.40;;;;;;;;;;5054244;28;20556;-73
2023/12/13 13:23:49;;;;;;;0.30;0.30;;;;;;;;;;5056943;28;20058;-73
2023/12/13 13:26:14;;;;;;;0.20;0.20;;;;;;;;;;5069536;28;20027;-75
2023/12/13 13:28:41;;;;;;;0.38;0.38;;;;;;;;;;5069094;28;20039;-75
2023/12/13 13:31:07;;;;;;;0.25;0.25;;;;;;;;;;5069125;28;20039;-74
2023/12/13 13:33:33;;;;;;;0.20;0.20;;;;;;;;;;5060200;28;20452;-74
2023/12/13 13:35:59;;;;;;;0.30;0.30;;;;;;;;;;5060236;28;20028;-74
2023/12/13 13:38:30;;;;;;;0.30;0.30;;;;;;;;;;5062491;28;20032;-75
2023/12/13 13:40:56;;;;;;;0.25;0.25;;;;;;;;;;5067892;28;20059;-74
2023/12/13 13:43:21;;;;;;;0.20;0.20;;;;;;;;;;5061957;28;20098;-76
2023/12/13 13:45:47;;;;;;;4.35;1.85;;;;;;;;;;5069043;28;20032;-75
2023/12/13 13:48:16;;;;;;;0.20;0.20;;;;;;;;;;5069066;28;20032;-74
2023/12/13 13:50:42;;;;;;;0.28;0.28;;;;;;;;;;5069844;28;20524;-74
2023/12/13 13:53:09;;;;;;;0.20;0.20;;;;;;;;;;5080764;28;20053;-74
2023/12/13 13:55:35;;;;;;;0.10;0.10;;;;;;;;;;5075727;28;20115;-74
2023/12/13 13:58:01;;;;;;;0.30;0.30;;;;;;;;;;5089151;28;20550;-73
2023/12/13 14:00:27;;;;;;;0.35;0.35;;;;;;;;;;5088615;28;20053;-74
2023/12/13 14:02:53;;;;;;;1.40;0.43;;;;;;;;;;5089376;28;20026;-75
2023/12/13 14:05:19;;;;;;;0.25;0.25;;;;;;;;;;5089703;28;20024;-74
2023/12/13 14:07:45;;;;;;;0.20;0.20;;;;;;;;;;5089438;28;20035;-74
2023/12/13 14:10:11;;;;;;;0.20;0.20;;;;;;;;;;5089611;28;20479;-74
2023/12/13 14:12:36;;;;;;;0.80;0.80;;;;;;;;;;5088224;28;20036;-74
2023/12/13 14:15:02;;;;;;;0.73;0.68;;;;;;;;;;5089462;28;20370;-72
2023/12/13 14:17:28;;;;;;;0.20;0.20;;;;;;;;;;5089221;28;20031;-74
2023/12/13 14:19:54;;;;;;;1.55;0.57;;;;;;;;;;5089422;28;20411;-74
2023/12/13 14:22:22;;;;;;;0.20;0.20;;;;;;;;;;5088537;28;20024;-74
2023/12/13 14:24:48;;;;;;;0.20;0.20;;;;;;;;;;5089002;28;20487;-76
2023/12/13 14:27:14;;;;;;;0.65;0.65;;;;;;;;;;5089112;28;20098;-73
2023/12/13 14:29:40;;;;;;;0.20;0.20;;;;;;;;;;5089823;28;20043;-73
2023/12/13 14:32:07;;;;;;;0.32;0.32;;;;;;;;;;5091014;28;20028;-73
2023/12/13 14:34:33;;;;;;;0.20;0.20;;;;;;;;;;5082833;28;20038;-75
2023/12/13 14:36:59;;;;;;;0.22;0.22;;;;;;;;;;5072302;28;20032;-73
2023/12/13 14:39:26;;;;;;;3.13;0.90;;;;;;;;;;5060714;28;20555;-74